createdAt,value
2019-04-16T00:02:06.859Z,5.05
2019-04-16T00:04:53.699Z,4.97
2019-04-16T00:07:41.100Z,4.99
2019-04-16T00:10:20.314Z,5.03
2019-04-16T00:12:59.341Z,5.08
2019-04-16T00:15:27.969Z,5.13
2019-04-16T00:17:56.111Z,5.28
2019-04-16T00:20:24.366Z,5.31
2019-04-16T00:22:59.565Z,5.31
2019-04-16T00:25:27.109Z,5.25
2019-04-16T00:27:59.531Z,5.19
2019-04-16T00:30:26.071Z,5.08
2019-04-16T00:32:54.355Z,4.99
2019-04-16T00:35:22.789Z,4.89
2019-04-16T00:37:52.331Z,4.84
2019-04-16T00:40:20.625Z,4.75
2019-04-16T00:42:48.878Z,4.67
2019-04-16T00:45:17.195Z,4.64
2019-04-16T00:47:47.931Z,4.59
2019-04-16T00:50:17.240Z,4.55
2019-04-16T00:52:45.725Z,4.55
2019-04-16T00:55:14.586Z,4.51
2019-04-16T00:57:43.065Z,4.46
2019-04-16T01:00:11.150Z,4.45
2019-04-16T01:02:39.094Z,4.45
2019-04-16T01:05:07.492Z,4.38
2019-04-16T01:07:36.091Z,4.37
2019-04-16T01:10:04.589Z,4.36
2019-04-16T01:12:33.166Z,4.30
2019-04-16T01:15:01.580Z,4.28
2019-04-16T01:17:30.135Z,4.24
2019-04-16T01:19:58.322Z,4.29
2019-04-16T01:22:26.495Z,4.35
2019-04-16T01:24:55.120Z,4.37
2019-04-16T01:27:31.348Z,4.36
2019-04-16T01:29:59.635Z,4.30
2019-04-16T01:32:42.707Z,4.27
2019-04-16T01:35:28.244Z,4.34
2019-04-16T01:38:14.629Z,4.48
2019-04-16T01:40:54.322Z,4.48
2019-04-16T01:43:25.476Z,4.45
2019-04-16T01:45:53.704Z,4.38
2019-04-16T01:48:22.322Z,4.27
2019-04-16T01:50:50.982Z,4.18
2019-04-16T01:53:21.110Z,4.23
2019-04-16T01:55:50.158Z,4.21
2019-04-16T01:58:18.704Z,4.24
2019-04-16T02:00:47.373Z,4.25
2019-04-16T02:03:17.742Z,4.34
2019-04-16T02:05:45.609Z,4.45
2019-04-16T02:08:14.409Z,4.52
2019-04-16T02:10:42.545Z,4.52
2019-04-16T02:13:14.542Z,4.45
2019-04-16T02:15:41.639Z,4.38
2019-04-16T02:18:10.238Z,4.33
2019-04-16T02:20:39.659Z,4.26
2019-04-16T02:23:07.955Z,4.13
2019-04-16T02:25:36.481Z,4.06
2019-04-16T02:28:05.335Z,3.95
2019-04-16T02:30:37.672Z,3.83
2019-04-16T02:33:03.739Z,3.70
2019-04-16T02:35:32.042Z,3.55
2019-04-16T02:38:00.408Z,3.55
2019-04-16T02:40:28.981Z,3.48
2019-04-16T02:43:04.187Z,3.52
2019-04-16T02:45:27.294Z,3.49
2019-04-16T02:47:55.467Z,3.44
2019-04-16T02:50:32.113Z,3.35
2019-04-16T02:53:10.541Z,3.32
2019-04-16T02:55:58.118Z,3.38
2019-04-16T02:58:34.043Z,3.37
2019-04-16T03:01:27.602Z,3.27
2019-04-16T03:04:02.747Z,3.23
2019-04-16T03:06:32.006Z,3.16
2019-04-16T03:09:00.945Z,3.11
2019-04-16T03:11:29.225Z,3.21
2019-04-16T03:13:59.309Z,3.25
2019-04-16T03:16:38.037Z,3.21
2019-04-16T03:19:12.590Z,3.13
2019-04-16T03:21:41.191Z,3.02
2019-04-16T03:24:10.087Z,2.93
2019-04-16T03:26:38.361Z,2.83
2019-04-16T03:29:07.062Z,2.77
2019-04-16T03:31:35.353Z,2.70
2019-04-16T03:34:03.917Z,2.52
2019-04-16T03:36:32.201Z,2.34
2019-04-16T03:39:00.082Z,2.22
2019-04-16T03:41:28.303Z,2.12
2019-04-16T03:43:56.655Z,2.07
2019-04-16T03:46:24.611Z,2.02
2019-04-16T03:48:56.155Z,2.03
2019-04-16T03:51:23.041Z,2.03
2019-04-16T03:53:50.950Z,2.02
2019-04-16T03:56:19.261Z,1.95
2019-04-16T03:58:47.467Z,1.94
2019-04-16T04:01:17.768Z,1.96
2019-04-16T04:03:47.072Z,1.98
2019-04-16T04:06:16.359Z,2.17
2019-04-16T04:08:47.929Z,2.26
2019-04-16T04:11:15.028Z,2.38
2019-04-16T04:13:42.946Z,2.38
2019-04-16T04:16:11.707Z,2.35
2019-04-16T04:18:42.913Z,2.19
2019-04-16T04:21:10.413Z,2.14
2019-04-16T04:23:37.935Z,2.08
2019-04-16T04:26:08.896Z,2.03
2019-04-16T04:28:38.235Z,1.97
2019-04-16T04:31:07.054Z,1.87
2019-04-16T04:33:41.829Z,1.77
2019-04-16T04:36:09.316Z,1.79
2019-04-16T04:38:38.385Z,1.73
2019-04-16T04:41:07.135Z,1.73
2019-04-16T04:43:35.470Z,1.71
2019-04-16T04:46:03.781Z,1.66
2019-04-16T04:48:31.810Z,1.76
2019-04-16T04:51:00.337Z,1.93
2019-04-16T04:53:28.310Z,2.04
2019-04-16T04:55:57.261Z,2.03
2019-04-16T04:58:26.395Z,2.05
2019-04-16T05:00:54.757Z,2.06
2019-04-16T05:03:33.922Z,2.07
2019-04-16T05:06:03.247Z,2.01
2019-04-16T05:08:31.700Z,2.08
2019-04-16T05:11:02.760Z,2.00
2019-04-16T05:13:30.014Z,2.00
2019-04-16T05:16:01.579Z,1.98
2019-04-16T05:18:28.007Z,2.03
2019-04-16T05:20:58.001Z,2.14
2019-04-16T05:23:26.306Z,2.24
2019-04-16T05:25:54.575Z,2.19
2019-04-16T05:28:23.191Z,2.29
2019-04-16T05:30:52.176Z,2.27
2019-04-16T05:33:22.827Z,2.27
2019-04-16T05:35:51.600Z,2.26
2019-04-16T05:38:20.456Z,2.26
2019-04-16T05:40:48.863Z,2.34
2019-04-16T05:43:17.475Z,2.36
2019-04-16T05:45:45.414Z,2.39
2019-04-16T05:48:13.533Z,2.43
2019-04-16T05:50:41.917Z,2.47
2019-04-16T05:53:12.803Z,2.59
2019-04-16T05:56:05.795Z,2.66
2019-04-16T05:58:36.166Z,2.77
2019-04-16T06:01:10.427Z,2.94
2019-04-16T06:03:39.755Z,3.00
2019-04-16T06:06:08.516Z,3.04
2019-04-16T06:08:40.717Z,3.12
2019-04-16T06:11:06.715Z,3.15
2019-04-16T06:14:00.406Z,3.21
2019-04-16T06:16:36.572Z,3.32
2019-04-16T06:19:33.049Z,3.46
2019-04-16T06:22:06.187Z,3.54
2019-04-16T06:25:12.339Z,3.66
2019-04-16T06:27:54.226Z,3.86
2019-04-16T06:30:55.171Z,4.02
2019-04-16T06:33:37.711Z,4.16
2019-04-16T06:36:11.884Z,4.37
2019-04-16T06:38:49.723Z,4.63
2019-04-16T06:41:42.048Z,4.69
2019-04-16T06:44:11.205Z,4.95
2019-04-16T06:47:16.851Z,5.19
2019-04-16T06:49:51.200Z,5.35
2019-04-16T06:52:39.505Z,5.48
2019-04-16T06:55:34.985Z,5.47
2019-04-16T06:58:18.268Z,5.54
2019-04-16T07:01:07.169Z,5.61
2019-04-16T07:03:51.227Z,5.83
2019-04-16T07:06:44.263Z,5.99
2019-04-16T07:09:40.508Z,6.16
2019-04-16T07:12:09.907Z,6.41
2019-04-16T07:14:37.809Z,6.64
2019-04-16T07:17:06.520Z,6.96
2019-04-16T07:19:35.157Z,7.36
2019-04-16T07:22:04.046Z,8.15
2019-04-16T07:24:36.799Z,8.50
2019-04-16T07:27:03.163Z,9.04
2019-04-16T07:29:49.988Z,9.62
2019-04-16T07:32:40.863Z,9.99
2019-04-16T07:35:34.666Z,10.11
2019-04-16T07:38:31.568Z,10.06
2019-04-16T07:41:18.282Z,10.53
2019-04-16T07:44:09.729Z,10.93
2019-04-16T07:46:52.601Z,11.45
2019-04-16T07:49:45.437Z,11.29
2019-04-16T07:52:23.651Z,11.26
2019-04-16T07:55:06.179Z,11.16
2019-04-16T07:57:34.386Z,11.15
2019-04-16T08:00:02.310Z,11.20
2019-04-16T08:02:30.907Z,11.30
2019-04-16T08:04:58.920Z,11.73
2019-04-16T08:07:27.091Z,11.97
2019-04-16T08:09:55.328Z,11.84
2019-04-16T08:12:30.279Z,11.64
2019-04-16T08:14:54.845Z,11.93
2019-04-16T08:17:23.045Z,11.80
2019-04-16T08:19:55.334Z,11.93
2019-04-16T08:22:23.062Z,12.28
2019-04-16T08:24:59.753Z,12.46
2019-04-16T08:27:25.843Z,13.05
2019-04-16T08:29:54.042Z,13.14
2019-04-16T08:32:21.951Z,13.27
2019-04-16T08:34:49.591Z,13.13
2019-04-16T08:37:18.244Z,13.42
2019-04-16T08:39:46.925Z,13.59
2019-04-16T08:42:15.733Z,14.02
2019-04-16T08:44:44.976Z,14.15
2019-04-16T08:47:12.984Z,14.62
2019-04-16T08:49:41.306Z,15.17
2019-04-16T08:52:10.210Z,15.43
2019-04-16T08:54:38.977Z,15.50
2019-04-16T08:57:07.626Z,15.72
2019-04-16T08:59:35.482Z,16.40
2019-04-16T09:02:03.790Z,16.40
2019-04-16T09:04:34.661Z,16.46
2019-04-16T09:07:11.488Z,16.71
2019-04-16T09:09:51.414Z,16.71
2019-04-16T09:12:19.323Z,16.52
2019-04-16T09:14:54.937Z,16.25
2019-04-16T09:17:23.716Z,16.30
2019-04-16T09:20:11.191Z,16.40
2019-04-16T09:22:48.833Z,16.33
2019-04-16T09:25:47.763Z,16.36
2019-04-16T09:28:34.577Z,16.40
2019-04-16T09:31:40.723Z,16.29
2019-04-16T09:34:16.127Z,16.07
2019-04-16T09:37:03.001Z,15.89
2019-04-16T09:39:39.302Z,15.91
2019-04-16T09:42:07.936Z,16.04
2019-04-16T09:44:36.050Z,16.00
2019-04-16T09:47:05.379Z,16.14
2019-04-16T09:49:34.433Z,16.19
2019-04-16T09:52:04.124Z,16.22
2019-04-16T09:54:31.922Z,16.44
2019-04-16T09:57:00.705Z,16.51
2019-04-16T09:59:35.943Z,16.65
2019-04-16T10:02:19.175Z,16.73
2019-04-16T10:04:47.445Z,16.93
2019-04-16T10:07:15.984Z,17.20
2019-04-16T10:09:44.723Z,17.69
2019-04-16T10:12:12.674Z,18.14
2019-04-16T10:14:40.936Z,18.34
2019-04-16T10:17:09.141Z,19.06
2019-04-16T10:19:37.421Z,18.84
2019-04-16T10:22:05.708Z,19.43
2019-04-16T10:24:51.996Z,19.61
2019-04-16T10:27:32.335Z,19.44
2019-04-16T10:30:00.531Z,19.14
2019-04-16T10:32:28.927Z,19.05
2019-04-16T10:34:57.561Z,18.95
2019-04-16T10:37:26.150Z,19.11
2019-04-16T10:40:19.262Z,19.82
2019-04-16T10:43:25.063Z,19.96
2019-04-16T10:46:12.506Z,19.87
2019-04-16T10:48:58.708Z,20.47
2019-04-16T10:51:56.005Z,20.84
2019-04-16T10:54:50.030Z,21.32
2019-04-16T10:57:43.875Z,21.22
2019-04-16T11:00:31.512Z,20.87
2019-04-16T11:03:05.897Z,22.04
2019-04-16T11:05:41.885Z,21.53
2019-04-16T11:08:11.205Z,21.28
2019-04-16T11:10:39.931Z,21.55
2019-04-16T11:13:12.655Z,21.45
2019-04-16T11:15:40.536Z,21.53
2019-04-16T11:18:09.464Z,21.66
2019-04-16T11:20:37.822Z,21.55
2019-04-16T11:23:07.612Z,22.10
2019-04-16T11:25:36.008Z,22.45
2019-04-16T11:28:04.776Z,22.49
2019-04-16T11:30:53.207Z,21.90
2019-04-16T11:33:21.455Z,20.33
2019-04-16T11:35:53.028Z,19.17
2019-04-16T11:38:20.141Z,18.53
2019-04-16T11:40:48.685Z,18.53
2019-04-16T11:43:17.377Z,18.34
2019-04-16T11:45:47.526Z,17.64
2019-04-16T11:48:15.746Z,17.33
2019-04-16T11:50:44.222Z,17.26
2019-04-16T11:53:12.548Z,17.21
2019-04-16T11:55:40.472Z,17.42
2019-04-16T11:58:19.467Z,17.30
2019-04-16T12:00:57.406Z,17.35
2019-04-16T12:03:42.664Z,17.39
2019-04-16T12:06:34.104Z,17.34
2019-04-16T12:09:20.109Z,17.34
2019-04-16T12:11:52.104Z,17.39
2019-04-16T12:14:32.455Z,16.68
2019-04-16T12:17:08.845Z,16.68
2019-04-16T12:20:07.984Z,16.44
2019-04-16T12:22:50.295Z,16.28
2019-04-16T12:25:38.121Z,16.39
2019-04-16T12:28:31.859Z,16.19
2019-04-16T12:31:11.241Z,15.93
2019-04-16T12:34:12.759Z,15.61
2019-04-16T12:37:05.276Z,15.58
2019-04-16T12:39:50.945Z,15.51
2019-04-16T12:42:42.225Z,15.41
2019-04-16T12:45:34.170Z,15.11
2019-04-16T12:48:27.773Z,14.83
2019-04-16T12:51:03.280Z,14.65
2019-04-16T12:53:54.047Z,14.62
2019-04-16T12:56:44.357Z,14.37
2019-04-16T12:59:23.164Z,14.18
2019-04-16T13:02:22.769Z,13.43
2019-04-16T13:05:20.883Z,12.95
2019-04-16T13:08:04.469Z,12.57
2019-04-16T13:10:50.531Z,12.31
2019-04-16T13:13:56.777Z,12.27
2019-04-16T13:16:36.807Z,12.12
2019-04-16T13:19:23.248Z,12.13
2019-04-16T13:21:55.198Z,12.09
2019-04-16T13:24:36.274Z,11.94
2019-04-16T13:27:08.881Z,11.84
2019-04-16T13:29:37.382Z,11.84
2019-04-16T13:32:05.958Z,11.73
2019-04-16T13:34:33.910Z,11.76
2019-04-16T13:37:02.498Z,11.74
2019-04-16T13:40:01.613Z,11.76
2019-04-16T13:42:29.783Z,11.83
2019-04-16T13:45:15.732Z,12.04
2019-04-16T13:47:33.277Z,12.19
2019-04-16T13:50:23.206Z,12.23
2019-04-16T13:52:55.987Z,12.36
2019-04-16T13:55:41.674Z,12.52
2019-04-16T13:58:22.254Z,12.54
2019-04-16T14:00:57.419Z,12.72
2019-04-16T14:03:26.007Z,12.79
2019-04-16T14:05:54.418Z,12.79
2019-04-16T14:08:22.989Z,12.65
2019-04-16T14:10:51.692Z,12.58
2019-04-16T14:13:19.849Z,12.59
2019-04-16T14:15:47.732Z,12.42
2019-04-16T14:18:15.923Z,12.23
2019-04-16T14:20:44.189Z,12.23
2019-04-16T14:23:12.879Z,12.12
2019-04-16T14:25:41.283Z,12.04
2019-04-16T14:28:09.156Z,12.00
2019-04-16T14:30:42.836Z,11.83
2019-04-16T14:33:15.409Z,11.64
2019-04-16T14:35:43.708Z,11.59
2019-04-16T14:38:14.770Z,11.50
2019-04-16T14:40:43.351Z,11.31
2019-04-16T14:43:12.754Z,11.30
2019-04-16T14:45:58.349Z,11.27
2019-04-16T14:48:20.192Z,11.29
2019-04-16T14:50:48.756Z,11.23
2019-04-16T14:53:29.543Z,11.13
2019-04-16T14:56:04.487Z,11.02
2019-04-16T14:58:58.702Z,10.95
2019-04-16T15:01:35.703Z,10.79
2019-04-16T15:04:35.829Z,10.53
2019-04-16T15:07:22.034Z,10.27
2019-04-16T15:09:55.575Z,10.11
2019-04-16T15:12:43.539Z,10.05
2019-04-16T15:15:27.449Z,9.97
2019-04-16T15:18:27.071Z,10.01
2019-04-16T15:21:24.718Z,9.97
2019-04-16T15:24:11.422Z,9.95
2019-04-16T15:26:58.133Z,9.89
2019-04-16T15:29:52.541Z,9.87
2019-04-16T15:32:38.287Z,9.85
2019-04-16T15:35:08.215Z,9.86
2019-04-16T15:37:57.891Z,9.83
2019-04-16T15:40:32.333Z,9.78
2019-04-16T15:43:28.525Z,9.74
2019-04-16T15:46:26.389Z,9.70
2019-04-16T15:49:24.464Z,9.65
2019-04-16T15:52:18.331Z,9.65
2019-04-16T15:54:53.499Z,9.66
2019-04-16T15:57:53.644Z,9.68
2019-04-16T16:00:31.508Z,9.71
2019-04-16T16:03:11.804Z,10.16
2019-04-16T16:05:43.525Z,10.10
2019-04-16T16:08:19.322Z,10.08
2019-04-16T16:10:51.683Z,10.24
2019-04-16T16:13:22.719Z,10.47
2019-04-16T16:15:51.788Z,10.39
2019-04-16T16:18:20.141Z,10.22
2019-04-16T16:20:48.817Z,10.14
2019-04-16T16:23:18.855Z,10.13
2019-04-16T16:25:47.452Z,10.19
2019-04-16T16:28:15.803Z,10.12
2019-04-16T16:30:44.095Z,10.12
2019-04-16T16:33:12.062Z,10.22
2019-04-16T16:35:40.673Z,10.28
2019-04-16T16:38:11.103Z,10.36
2019-04-16T16:40:39.625Z,10.36
2019-04-16T16:43:08.772Z,10.53
2019-04-16T16:45:50.135Z,10.54
2019-04-16T16:48:21.905Z,10.62
2019-04-16T16:50:51.599Z,10.61
2019-04-16T16:53:37.224Z,10.58
2019-04-16T16:56:13.555Z,10.50
2019-04-16T16:58:42.966Z,10.47
2019-04-16T17:01:42.486Z,10.66
2019-04-16T17:04:13.540Z,10.57
2019-04-16T17:06:42.030Z,10.50
2019-04-16T17:09:27.170Z,10.53
2019-04-16T17:11:56.368Z,10.51
2019-04-16T17:14:24.967Z,10.60
2019-04-16T17:16:53.816Z,10.55
2019-04-16T17:19:22.804Z,10.57
2019-04-16T17:21:52.601Z,10.52
2019-04-16T17:27:02.445Z,10.47
2019-04-16T17:29:30.319Z,10.35
2019-04-16T17:31:58.603Z,10.37
2019-04-16T17:34:26.883Z,10.33
2019-04-16T17:36:55.462Z,10.26
2019-04-16T17:39:43.823Z,10.21
2019-04-16T17:42:12.455Z,10.16
2019-04-16T17:44:54.066Z,10.06
2019-04-16T17:47:34.902Z,10.00
2019-04-16T17:50:20.910Z,9.95
2019-04-16T17:53:15.752Z,9.90
2019-04-16T17:56:00.593Z,9.86
2019-04-16T17:58:36.045Z,9.98
2019-04-16T18:01:19.163Z,9.98
2019-04-16T18:04:12.179Z,10.03
2019-04-16T18:06:50.425Z,10.15
2019-04-16T18:09:40.706Z,10.18
2019-04-16T18:12:43.563Z,10.20
2019-04-16T18:15:42.477Z,10.04
2019-04-16T18:18:36.467Z,9.99
2019-04-16T18:21:37.566Z,9.96
2019-04-16T18:24:31.517Z,10.00
2019-04-16T18:27:28.335Z,9.89
2019-04-16T18:30:16.177Z,9.84
2019-04-16T18:33:07.506Z,9.73
2019-04-16T18:35:43.766Z,9.64
2019-04-16T18:38:22.263Z,9.54
2019-04-16T18:41:19.808Z,9.44
2019-04-16T18:44:19.702Z,9.35
2019-04-16T18:47:12.975Z,9.27
2019-04-16T18:49:41.460Z,9.20
2019-04-16T18:52:09.863Z,9.12
2019-04-16T18:54:38.334Z,9.10
2019-04-16T18:57:07.043Z,9.09
2019-04-16T18:59:35.617Z,9.08
2019-04-16T19:02:08.767Z,9.08
2019-04-16T19:04:35.943Z,9.08
2019-04-16T19:07:04.927Z,9.03
2019-04-16T19:09:35.497Z,9.01
2019-04-16T19:12:04.090Z,9.01
2019-04-16T19:14:36.311Z,8.97
2019-04-16T19:17:02.873Z,8.89
2019-04-16T19:19:31.476Z,8.84
2019-04-16T19:22:01.077Z,8.78
2019-04-16T19:24:29.670Z,8.81
2019-04-16T19:26:58.442Z,8.83
2019-04-16T19:29:26.847Z,8.83
2019-04-16T19:31:56.894Z,8.88
2019-04-16T19:34:25.348Z,8.92
2019-04-16T19:36:55.934Z,8.93
2019-04-16T19:39:23.238Z,8.91
2019-04-16T19:41:57.499Z,8.91
2019-04-16T19:44:25.670Z,8.87
2019-04-16T19:46:54.395Z,8.85
2019-04-16T19:49:23.242Z,8.77
2019-04-16T19:51:52.024Z,8.83
2019-04-16T19:54:19.649Z,8.78
2019-04-16T19:56:51.116Z,8.70
2019-04-16T19:59:18.858Z,8.68
2019-04-16T20:01:47.232Z,8.61
2019-04-16T20:04:15.952Z,8.55
2019-04-16T20:06:45.358Z,8.47
2019-04-16T20:09:13.495Z,8.42
2019-04-16T20:11:42.999Z,8.35
2019-04-16T20:14:11.258Z,8.29
2019-04-16T20:16:39.149Z,8.22
2019-04-16T20:19:07.349Z,8.20
2019-04-16T20:21:37.647Z,8.14
2019-04-16T20:24:05.409Z,8.06
2019-04-16T20:26:34.083Z,7.95
2019-04-16T20:29:04.479Z,7.89
2019-04-16T20:31:33.104Z,7.83
2019-04-16T20:34:01.679Z,7.78
2019-04-16T20:36:30.014Z,7.72
2019-04-16T20:38:58.401Z,7.66
2019-04-16T20:41:27.102Z,7.60
2019-04-16T20:43:55.886Z,7.48
2019-04-16T20:46:24.167Z,7.43
2019-04-16T20:49:06.738Z,7.39
2019-04-16T20:51:26.301Z,7.30
2019-04-16T20:53:53.097Z,7.22
2019-04-16T20:56:21.638Z,7.19
2019-04-16T20:58:50.734Z,7.14
2019-04-16T21:01:32.890Z,7.10
2019-04-16T21:04:03.797Z,7.10
2019-04-16T21:06:26.083Z,7.07
2019-04-16T21:08:56.883Z,7.08
2019-04-16T21:11:25.309Z,7.07
2019-04-16T21:13:57.443Z,7.08
2019-04-16T21:16:25.780Z,7.10
2019-04-16T21:18:54.024Z,7.13
2019-04-16T21:21:25.012Z,7.20
2019-04-16T21:23:54.198Z,7.25
2019-04-16T21:26:22.908Z,7.32
2019-04-16T21:29:03.218Z,7.36
2019-04-16T21:31:35.751Z,7.38
2019-04-16T21:34:29.495Z,7.41
2019-04-16T21:37:12.764Z,7.36
2019-04-16T21:39:47.299Z,7.37
2019-04-16T21:42:17.460Z,7.37
2019-04-16T21:44:46.719Z,7.41
2019-04-16T21:47:17.469Z,7.39
2019-04-16T21:49:46.430Z,7.39
2019-04-16T21:52:16.249Z,7.40
2019-04-16T21:54:44.844Z,7.41
2019-04-16T21:57:14.336Z,7.43
2019-04-16T21:59:42.623Z,7.42
2019-04-16T22:02:16.740Z,7.45
2019-04-16T22:04:45.497Z,7.47
2019-04-16T22:07:14.503Z,7.45
2019-04-16T22:09:42.780Z,7.45
2019-04-16T22:12:15.183Z,7.41
2019-04-16T22:14:41.189Z,7.53
2019-04-16T22:17:09.935Z,7.59
2019-04-16T22:19:52.945Z,7.53
2019-04-16T22:22:11.653Z,7.38
2019-04-16T22:24:39.558Z,7.27
2019-04-16T22:27:08.600Z,7.23
2019-04-16T22:29:36.575Z,7.20
2019-04-16T22:32:05.915Z,7.17
2019-04-16T22:34:34.465Z,7.15
2019-04-16T22:37:04.287Z,7.16
2019-04-16T22:39:51.192Z,7.16
2019-04-16T22:42:29.850Z,7.13
2019-04-16T22:45:10.513Z,7.06
2019-04-16T22:47:38.362Z,7.01
2019-04-16T22:50:16.349Z,6.96
2019-04-16T22:52:37.878Z,6.95
2019-04-16T22:55:06.792Z,6.88
2019-04-16T22:57:35.285Z,6.96
2019-04-16T23:00:05.410Z,6.93
2019-04-16T23:02:34.013Z,6.88
2019-04-16T23:05:01.523Z,6.84
2019-04-16T23:07:30.076Z,6.81
2019-04-16T23:09:58.706Z,6.79
2019-04-16T23:12:28.127Z,6.79
2019-04-16T23:14:56.077Z,6.87
2019-04-16T23:17:26.060Z,6.94
2019-04-16T23:19:54.671Z,7.01
2019-04-16T23:22:25.134Z,7.08
2019-04-16T23:24:55.350Z,7.13
2019-04-16T23:27:23.832Z,7.13
2019-04-16T23:29:52.382Z,7.07
2019-04-16T23:32:20.923Z,6.99
2019-04-16T23:34:49.073Z,6.90
2019-04-16T23:37:22.996Z,6.84
2019-04-16T23:39:47.573Z,6.80
2019-04-16T23:42:18.801Z,6.79
2019-04-16T23:45:04.186Z,6.79
2019-04-16T23:48:01.107Z,6.76
2019-04-16T23:50:45.239Z,6.79
2019-04-16T23:53:24.078Z,6.77
2019-04-16T23:56:12.156Z,6.77
2019-04-16T23:59:02.563Z,6.75
